Time;durP1;ratioP1;P1;durP2;ratioP2;P2;SDS_P1;SDS_P2;PMS_P1;PMS_P2;Temp;Humidity;BMP_temperature;BMP_pressure;BME280_temperature;BME280_humidity;BME280_pressure;Samples;Min_cycle;Max_cycle;Signal;HPM_P1;HPM_P2
2023/06/24 00:02:15;;;;;;;2.60;2.08;;;17.90;99.90;;;;;;4982404;28;20115;-73
2023/06/24 00:04:41;;;;;;;3.75;2.15;;;17.90;99.90;;;;;;4978577;28;20034;-73
2023/06/24 00:07:07;;;;;;;3.90;2.15;;;17.90;99.90;;;;;;4997184;28;20322;-73
2023/06/24 00:09:33;;;;;;;3.47;2.00;;;17.90;99.90;;;;;;4994730;28;20081;-74
2023/06/24 00:11:59;;;;;;;2.28;1.73;;;17.90;99.90;;;;;;4993676;28;20409;-74
2023/06/24 00:14:26;;;;;;;3.15;1.77;;;17.90;99.90;;;;;;5010751;28;20030;-72
2023/06/24 00:16:56;;;;;;;2.45;1.83;;;17.90;99.90;;;;;;5011025;28;20121;-74
2023/06/24 00:19:26;;;;;;;2.93;1.83;;;17.90;99.90;;;;;;5008151;28;20060;-75
2023/06/24 00:21:53;;;;;;;4.57;1.90;;;17.90;99.90;;;;;;4991824;28;20019;-72
2023/06/24 00:24:25;;;;;;;6.10;1.80;;;17.90;99.90;;;;;;4990742;28;20062;-74
2023/06/24 00:26:54;;;;;;;4.30;1.50;;;17.90;99.90;;;;;;4990503;28;20033;-73
2023/06/24 00:29:20;;;;;;;2.80;1.60;;;17.90;99.90;;;;;;4990923;28;20022;-72
2023/06/24 00:31:46;;;;;;;1.90;1.40;;;17.90;99.90;;;;;;4990778;28;20499;-72
2023/06/24 00:34:12;;;;;;;4.28;2.13;;;18.00;99.90;;;;;;4971125;28;20031;-72
2023/06/24 00:36:38;;;;;;;6.65;2.17;;;18.00;99.90;;;;;;4972552;28;20389;-75
2023/06/24 00:39:05;;;;;;;4.88;1.75;;;18.00;99.90;;;;;;4978109;28;20053;-74
2023/06/24 00:41:32;;;;;;;9.00;2.08;;;18.00;99.90;;;;;;4975061;28;20571;-73
2023/06/24 00:43:58;;;;;;;2.53;1.70;;;18.00;99.90;;;;;;4992175;28;20117;-74
2023/06/24 00:46:27;;;;;;;2.00;1.58;;;18.00;99.90;;;;;;4992267;28;20546;-73
2023/06/24 00:48:55;;;;;;;5.07;2.08;;;18.00;99.90;;;;;;4992264;28;20031;-73
2023/06/24 00:51:26;;;;;;;2.15;1.73;;;18.00;99.90;;;;;;4991631;28;20093;-74
2023/06/24 00:53:53;;;;;;;5.72;1.90;;;18.00;99.90;;;;;;4993892;28;20034;-74
2023/06/24 00:56:31;;;;;;;3.05;1.50;;;18.00;99.90;;;;;;4996124;28;20128;-73
2023/06/24 00:59:01;;;;;;;5.10;1.77;;;18.00;99.90;;;;;;4996529;28;20097;-75
2023/06/24 01:01:30;;;;;;;4.00;1.75;;;18.00;99.90;;;;;;4996221;28;20035;-73
2023/06/24 01:03:56;;;;;;;3.40;1.73;;;18.00;99.90;;;;;;4978777;28;20471;-73
2023/06/24 01:06:21;;;;;;;4.15;1.92;;;18.10;99.90;;;;;;4995455;28;20026;-74
2023/06/24 01:08:50;;;;;;;3.45;1.63;;;18.10;99.90;;;;;;4995843;28;20389;-73
2023/06/24 01:11:17;;;;;;;4.25;1.58;;;18.10;99.90;;;;;;4994940;28;20042;-73
2023/06/24 01:13:43;;;;;;;3.90;2.00;;;18.10;99.90;;;;;;4995925;28;20065;-72
2023/06/24 01:16:14;;;;;;;3.45;1.73;;;18.10;99.90;;;;;;4995774;28;20049;-74
2023/06/24 01:18:46;;;;;;;2.83;2.05;;;18.10;99.90;;;;;;4995272;28;20489;-73
2023/06/24 01:21:29;;;;;;;3.72;2.00;;;18.10;99.90;;;;;;4995474;28;20077;-74
2023/06/24 01:24:25;;;;;;;4.15;1.83;;;18.10;99.90;;;;;;4995761;28;20027;-73
2023/06/24 01:26:58;;;;;;;4.68;1.73;;;18.10;99.90;;;;;;4995513;28;20043;-75
2023/06/24 01:29:54;;;;;;;1.60;1.50;;;18.00;99.90;;;;;;4995656;28;20027;-73
2023/06/24 01:32:35;;;;;;;5.20;1.60;;;18.00;99.90;;;;;;4995600;28;20034;-73
2023/06/24 01:35:07;;;;;;;5.68;1.95;;;18.00;99.90;;;;;;4995401;28;20550;-73
2023/06/24 01:37:51;;;;;;;1.60;1.50;;;17.90;99.90;;;;;;4995612;28;20112;-75
2023/06/24 01:40:25;;;;;;;5.10;1.60;;;17.90;99.90;;;;;;4994913;28;20050;-73
2023/06/24 01:42:52;;;;;;;2.08;1.67;;;17.90;99.90;;;;;;4995171;28;20440;-73
2023/06/24 01:45:31;;;;;;;5.05;2.20;;;17.80;99.90;;;;;;4995019;28;20090;-72
2023/06/24 01:48:19;;;;;;;2.63;1.60;;;17.80;99.90;;;;;;4995447;28;20027;-73
2023/06/24 01:51:24;;;;;;;2.35;1.63;;;17.80;99.90;;;;;;4995405;28;20093;-74
2023/06/24 01:53:58;;;;;;;4.22;1.67;;;17.80;99.90;;;;;;4954170;29;20071;-74
2023/06/24 01:56:26;;;;;;;2.83;1.75;;;17.70;99.90;;;;;;4954057;28;20528;-73
2023/06/24 01:58:54;;;;;;;3.55;1.63;;;17.70;99.90;;;;;;4953928;29;20098;-73
2023/06/24 02:01:20;;;;;;;4.18;1.67;;;17.70;99.90;;;;;;4954519;29;20124;-74
2023/06/24 02:03:47;;;;;;;2.45;1.60;;;17.70;99.90;;;;;;4954008;29;20051;-72
2023/06/24 02:06:15;;;;;;;3.00;1.80;;;17.70;99.90;;;;;;4953217;28;20035;-73
2023/06/24 02:08:42;;;;;;;3.92;2.38;;;17.70;99.90;;;;;;4953829;28;20035;-75
2023/06/24 02:11:10;;;;;;;4.72;1.90;;;17.60;99.90;;;;;;4953663;29;20040;-73
2023/06/24 02:13:37;;;;;;;3.70;1.92;;;17.60;99.90;;;;;;4953835;28;20523;-72
2023/06/24 02:16:08;;;;;;;2.53;1.73;;;17.70;99.90;;;;;;4953687;28;20031;-73
2023/06/24 02:18:42;;;;;;;3.70;1.83;;;17.60;99.90;;;;;;4972004;28;20046;-73
2023/06/24 02:21:08;;;;;;;5.47;2.10;;;17.60;99.90;;;;;;4953676;29;20023;-74
2023/06/24 02:23:36;;;;;;;4.60;2.20;;;17.60;99.90;;;;;;4956958;28;20121;-73
2023/06/24 02:26:05;;;;;;;3.42;2.10;;;17.70;99.90;;;;;;4993978;28;20125;-74
2023/06/24 02:28:32;;;;;;;3.30;2.20;;;17.70;99.90;;;;;;4994873;28;20105;-73
2023/06/24 02:30:59;;;;;;;3.97;2.10;;;17.70;99.90;;;;;;4994251;28;20361;-74
2023/06/24 02:33:26;;;;;;;6.38;1.92;;;17.60;99.90;;;;;;4994526;28;20428;-73
2023/06/24 02:35:52;;;;;;;5.13;2.33;;;17.70;99.90;;;;;;5001715;28;20026;-73
2023/06/24 02:38:18;;;;;;;6.85;2.53;;;17.70;99.90;;;;;;5013887;28;20030;-73
2023/06/24 02:40:45;;;;;;;6.45;2.20;;;17.70;99.90;;;;;;5014379;28;20507;-73
2023/06/24 02:43:11;;;;;;;6.38;2.15;;;17.70;99.90;;;;;;5014144;28;20068;-73
2023/06/24 02:45:38;;;;;;;4.63;2.03;;;17.70;99.90;;;;;;5013106;28;20104;-73
2023/06/24 02:48:05;;;;;;;5.50;2.25;;;17.70;99.90;;;;;;5013621;28;20030;-73
2023/06/24 02:50:31;;;;;;;6.55;1.92;;;17.70;99.90;;;;;;5013707;28;20049;-73
2023/06/24 02:52:58;;;;;;;9.52;2.17;;;17.70;99.90;;;;;;5011887;28;20026;-74
2023/06/24 02:55:24;;;;;;;3.50;2.35;;;17.70;99.90;;;;;;5012489;28;20283;-73
2023/06/24 02:57:50;;;;;;;5.05;2.15;;;17.70;99.90;;;;;;5013772;28;20068;-73
2023/06/24 03:00:17;;;;;;;8.15;2.50;;;17.70;99.90;;;;;;5013832;28;20062;-73
2023/06/24 03:02:44;;;;;;;7.85;2.50;;;17.70;99.90;;;;;;4995976;28;20508;-73
2023/06/24 03:05:10;;;;;;;3.53;2.22;;;17.70;99.90;;;;;;5011882;28;20506;-73
2023/06/24 03:07:38;;;;;;;4.97;3.20;;;17.80;99.90;;;;;;5013063;28;20045;-73
2023/06/24 03:10:07;;;;;;;5.25;2.33;;;17.80;99.90;;;;;;5013474;28;20038;-73
2023/06/24 03:12:33;;;;;;;3.03;2.28;;;17.80;99.90;;;;;;5013514;28;20452;-73
2023/06/24 03:15:00;;;;;;;4.70;2.70;;;17.90;99.90;;;;;;5012048;28;20125;-73
2023/06/24 03:17:26;;;;;;;3.53;2.35;;;17.90;99.90;;;;;;5012521;28;20062;-74
2023/06/24 03:19:52;;;;;;;5.40;2.20;;;17.90;99.90;;;;;;5013678;28;20061;-73
2023/06/24 03:22:18;;;;;;;4.78;2.22;;;17.90;99.90;;;;;;5012903;28;20480;-73
2023/06/24 03:24:44;;;;;;;4.43;2.30;;;17.90;99.90;;;;;;4995398;28;20030;-74
2023/06/24 03:27:09;;;;;;;3.67;2.13;;;17.90;99.90;;;;;;5013146;28;20026;-74
2023/06/24 03:29:35;;;;;;;3.60;2.20;;;17.90;99.90;;;;;;5011938;28;20072;-74
2023/06/24 03:32:01;;;;;;;8.35;2.30;;;17.90;99.90;;;;;;5013250;28;20030;-73
2023/06/24 03:34:27;;;;;;;4.78;2.80;;;17.90;99.90;;;;;;5012795;28;20491;-74
2023/06/24 03:36:56;;;;;;;4.30;2.28;;;17.90;99.90;;;;;;5011357;28;20096;-73
2023/06/24 03:39:22;;;;;;;3.05;2.28;;;17.90;99.90;;;;;;5013207;28;20060;-77
2023/06/24 03:41:48;;;;;;;5.72;2.15;;;17.90;99.90;;;;;;5012563;28;20026;-73
2023/06/24 03:44:14;;;;;;;9.38;2.95;;;17.90;99.90;;;;;;5012242;28;20029;-73
2023/06/24 03:46:40;;;;;;;3.38;2.28;;;18.00;99.90;;;;;;5013060;28;20045;-73
2023/06/24 03:49:06;;;;;;;4.07;2.67;;;18.00;99.90;;;;;;4995100;28;20034;-73
2023/06/24 03:51:32;;;;;;;3.97;2.30;;;18.00;99.90;;;;;;5012189;28;20535;-73
2023/06/24 03:53:58;;;;;;;5.72;2.55;;;18.00;99.90;;;;;;5012820;28;20151;-75
2023/06/24 03:56:23;;;;;;;6.15;2.47;;;18.00;99.90;;;;;;5012396;28;20095;-73
2023/06/24 03:58:49;;;;;;;6.30;2.33;;;18.00;99.90;;;;;;5012862;28;20029;-73
2023/06/24 04:01:17;;;;;;;3.65;2.17;;;18.00;99.90;;;;;;5012666;28;20546;-75
2023/06/24 04:03:43;;;;;;;5.85;2.60;;;18.00;99.90;;;;;;5012541;28;20050;-73
2023/06/24 04:06:08;;;;;;;4.53;3.00;;;18.00;99.90;;;;;;5011748;28;20112;-73
2023/06/24 04:08:34;;;;;;;4.65;2.47;;;18.00;99.90;;;;;;5012595;28;20030;-75
2023/06/24 04:11:00;;;;;;;4.55;2.65;;;17.90;99.90;;;;;;5012466;28;20022;-74
2023/06/24 04:13:26;;;;;;;5.07;2.72;;;17.90;99.90;;;;;;5012415;28;20034;-74
2023/06/24 04:15:52;;;;;;;5.05;2.20;;;17.90;99.90;;;;;;5012177;28;20044;-73
2023/06/24 04:18:18;;;;;;;3.55;2.15;;;17.90;99.90;;;;;;5012313;28;20030;-73
2023/06/24 04:20:44;;;;;;;3.42;2.72;;;17.90;99.90;;;;;;5011641;28;20026;-73
2023/06/24 04:23:10;;;;;;;3.92;2.40;;;17.90;99.90;;;;;;5012017;28;20045;-74
2023/06/24 04:25:36;;;;;;;6.00;2.67;;;17.90;99.90;;;;;;4993953;28;20042;-74
2023/06/24 04:28:04;;;;;;;3.38;2.30;;;17.90;99.90;;;;;;4995332;28;20034;-72
2023/06/24 04:30:30;;;;;;;4.15;2.67;;;17.90;99.90;;;;;;5018566;28;20447;-73
2023/06/24 04:32:56;;;;;;;3.15;2.22;;;17.90;99.90;;;;;;5018236;28;20049;-75
2023/06/24 04:35:22;;;;;;;3.10;1.85;;;18.00;99.90;;;;;;5017784;28;20057;-73
2023/06/24 04:37:50;;;;;;;2.97;2.22;;;17.90;99.90;;;;;;5019026;28;20026;-73
2023/06/24 04:40:18;;;;;;;6.15;1.98;;;17.90;99.90;;;;;;5018607;28;20058;-72
2023/06/24 04:42:46;;;;;;;5.00;2.75;;;18.00;99.90;;;;;;5018656;28;20566;-75
2023/06/24 04:45:12;;;;;;;4.20;2.88;;;18.00;99.90;;;;;;5000569;28;20128;-73
2023/06/24 04:47:37;;;;;;;2.67;2.22;;;18.00;99.90;;;;;;5018254;28;20487;-73
2023/06/24 04:50:03;;;;;;;6.07;3.10;;;18.00;99.90;;;;;;5018632;28;20112;-73
2023/06/24 04:52:29;;;;;;;4.40;2.53;;;18.00;99.90;;;;;;5018738;28;20057;-74
2023/06/24 04:54:55;;;;;;;4.53;2.75;;;18.00;99.90;;;;;;5018201;28;20061;-73
2023/06/24 04:57:29;;;;;;;5.43;2.60;;;18.10;99.90;;;;;;5018435;28;20033;-72
2023/06/24 04:59:56;;;;;;;4.90;2.88;;;18.10;99.90;;;;;;5018333;28;20472;-74
2023/06/24 05:02:22;;;;;;;3.58;2.78;;;18.10;99.90;;;;;;5018249;28;20022;-74
2023/06/24 05:04:48;;;;;;;3.55;2.75;;;18.10;99.90;;;;;;5017633;28;20038;-73
2023/06/24 05:07:14;;;;;;;3.28;2.60;;;18.10;99.90;;;;;;5000639;28;20464;-74
2023/06/24 05:09:39;;;;;;;4.32;2.60;;;18.10;99.90;;;;;;5018321;28;20125;-74
2023/06/24 05:12:06;;;;;;;4.65;2.33;;;18.10;99.90;;;;;;5018124;28;20041;-73
2023/06/24 05:14:33;;;;;;;3.47;2.58;;;18.10;99.90;;;;;;5017969;28;20034;-73
2023/06/24 05:16:59;;;;;;;7.57;2.70;;;18.10;99.90;;;;;;5017980;28;20067;-74
2023/06/24 05:19:25;;;;;;;3.08;2.60;;;18.10;99.90;;;;;;5017276;28;20042;-74
2023/06/24 05:21:50;;;;;;;7.40;2.80;;;18.20;99.90;;;;;;5016971;28;20022;-74
2023/06/24 05:24:16;;;;;;;6.82;3.13;;;18.20;99.90;;;;;;5018185;28;20030;-72
2023/06/24 05:26:41;;;;;;;4.93;2.95;;;18.20;99.90;;;;;;5018163;28;20034;-74
2023/06/24 05:29:07;;;;;;;4.20;3.10;;;18.20;99.90;;;;;;5017822;28;20149;-73
2023/06/24 05:31:33;;;;;;;5.22;2.75;;;18.20;99.90;;;;;;5017686;28;20026;-73
2023/06/24 05:33:58;;;;;;;7.13;3.13;;;18.20;99.90;;;;;;5017940;28;20036;-73
2023/06/24 05:36:24;;;;;;;4.72;2.85;;;18.20;99.90;;;;;;5018190;28;20030;-73
2023/06/24 05:38:49;;;;;;;3.20;2.70;;;18.20;99.90;;;;;;5018041;28;20030;-73
2023/06/24 05:41:15;;;;;;;4.65;2.80;;;18.20;99.90;;;;;;5014100;28;20045;-72
2023/06/24 05:43:43;;;;;;;9.75;2.90;;;18.20;99.90;;;;;;5014966;28;20064;-75
2023/06/24 05:46:09;;;;;;;5.50;3.22;;;18.30;99.90;;;;;;5014688;28;20464;-73
2023/06/24 05:48:35;;;;;;;4.00;2.92;;;18.30;99.90;;;;;;5015346;28;20061;-73
2023/06/24 05:51:00;;;;;;;6.93;3.40;;;18.30;99.90;;;;;;5015103;28;20455;-73
2023/06/24 05:53:26;;;;;;;5.68;2.90;;;18.30;99.90;;;;;;5014936;28;20399;-73
2023/06/24 05:55:51;;;;;;;6.22;3.20;;;18.30;99.90;;;;;;5014786;28;20026;-74
2023/06/24 05:58:17;;;;;;;5.03;3.25;;;18.30;99.90;;;;;;5014861;28;20026;-75
2023/06/24 06:00:43;;;;;;;5.40;3.00;;;18.40;99.90;;;;;;4997098;28;20034;-74
2023/06/24 06:03:09;;;;;;;5.13;3.08;;;18.50;99.90;;;;;;5014772;28;20083;-74
2023/06/24 06:05:35;;;;;;;7.40;3.15;;;18.50;99.90;;;;;;5014498;28;20384;-74
2023/06/24 06:08:00;;;;;;;3.53;2.90;;;18.50;99.90;;;;;;5014959;28;20018;-74
2023/06/24 06:10:26;;;;;;;4.53;2.90;;;18.60;99.90;;;;;;5014788;28;20113;-74
2023/06/24 06:12:53;;;;;;;5.47;2.90;;;18.60;99.90;;;;;;5014566;28;20026;-74
2023/06/24 06:15:19;;;;;;;4.95;3.17;;;18.70;99.90;;;;;;5014077;28;20033;-74
2023/06/24 06:17:46;;;;;;;4.80;2.95;;;18.70;99.90;;;;;;5014458;28;20164;-74
2023/06/24 06:20:11;;;;;;;4.65;3.17;;;18.80;99.90;;;;;;5014772;28;20030;-73
2023/06/24 06:22:38;;;;;;;5.13;2.88;;;18.80;99.90;;;;;;5014586;28;20380;-76
2023/06/24 06:25:07;;;;;;;4.60;2.90;;;18.80;99.90;;;;;;5014043;28;20037;-73
2023/06/24 06:27:33;;;;;;;4.65;3.05;;;18.90;99.90;;;;;;5014288;28;20079;-72
2023/06/24 06:29:59;;;;;;;4.97;3.13;;;18.90;99.90;;;;;;5014208;28;20037;-74
2023/06/24 06:32:25;;;;;;;6.57;3.15;;;18.90;99.90;;;;;;4996708;28;20030;-74
2023/06/24 06:34:51;;;;;;;4.70;3.00;;;19.00;99.90;;;;;;5013874;28;20026;-73
2023/06/24 06:37:16;;;;;;;7.25;3.50;;;19.00;99.90;;;;;;4996349;28;20253;-73
2023/06/24 06:39:42;;;;;;;5.72;3.17;;;19.10;99.90;;;;;;5014032;28;20053;-74
2023/06/24 06:42:08;;;;;;;5.38;2.75;;;19.10;99.90;;;;;;5013904;28;20026;-71
2023/06/24 06:44:33;;;;;;;6.47;2.88;;;19.10;99.90;;;;;;5013267;28;20113;-70
2023/06/24 06:46:59;;;;;;;4.43;2.90;;;19.20;99.90;;;;;;5013284;28;20026;-73
2023/06/24 06:49:25;;;;;;;3.58;2.78;;;19.20;99.90;;;;;;5014041;28;20206;-75
2023/06/24 06:51:54;;;;;;;3.03;2.72;;;19.30;99.90;;;;;;5013708;28;20029;-73
2023/06/24 06:54:19;;;;;;;3.38;2.50;;;19.30;99.90;;;;;;5013163;28;20498;-73
2023/06/24 06:56:45;;;;;;;4.82;2.90;;;19.30;99.90;;;;;;5013812;28;20030;-73
2023/06/24 06:59:11;;;;;;;7.95;2.85;;;19.30;99.90;;;;;;5012094;28;20060;-73
2023/06/24 07:01:37;;;;;;;7.35;2.78;;;19.40;99.90;;;;;;5011534;28;20033;-72
2023/06/24 07:04:02;;;;;;;4.40;2.70;;;19.40;99.90;;;;;;5013246;28;20034;-74
2023/06/24 07:06:28;;;;;;;4.50;2.88;;;19.50;99.90;;;;;;4995483;28;20033;-73
2023/06/24 07:08:54;;;;;;;4.78;2.72;;;19.50;99.90;;;;;;5012953;28;20076;-72
2023/06/24 07:11:19;;;;;;;3.40;2.42;;;19.60;99.90;;;;;;5012929;28;20025;-73
2023/06/24 07:13:45;;;;;;;3.67;2.60;;;19.60;99.90;;;;;;5012714;28;20030;-73
2023/06/24 07:16:11;;;;;;;3.58;2.60;;;19.70;99.90;;;;;;5012895;28;20472;-73
2023/06/24 07:18:37;;;;;;;4.18;2.30;;;19.80;99.90;;;;;;5012859;28;20032;-74
2023/06/24 07:21:03;;;;;;;3.97;2.42;;;19.80;99.90;;;;;;5013183;28;20361;-73
2023/06/24 07:23:29;;;;;;;6.93;2.92;;;19.80;99.90;;;;;;5012113;28;20387;-72
2023/06/24 07:25:54;;;;;;;4.40;2.58;;;19.90;99.90;;;;;;5011039;28;20412;-72
2023/06/24 07:28:20;;;;;;;4.68;2.78;;;20.00;99.90;;;;;;5012604;28;20040;-72
2023/06/24 07:30:46;;;;;;;4.63;2.35;;;20.00;99.90;;;;;;4995056;28;20038;-71
2023/06/24 07:33:11;;;;;;;3.45;2.55;;;20.10;99.90;;;;;;5011946;28;20091;-73
2023/06/24 07:35:37;;;;;;;4.35;2.72;;;20.10;99.90;;;;;;5012142;28;20030;-73
2023/06/24 07:38:02;;;;;;;5.38;2.78;;;20.10;99.90;;;;;;5012625;28;20456;-72
2023/06/24 07:40:28;;;;;;;4.13;2.30;;;20.10;99.90;;;;;;5012463;28;20240;-73
2023/06/24 07:42:54;;;;;;;4.03;2.40;;;20.20;99.90;;;;;;5011997;28;20029;-73
2023/06/24 07:45:20;;;;;;;4.88;2.67;;;20.30;99.90;;;;;;5012078;28;20108;-73
2023/06/24 07:47:45;;;;;;;3.42;2.38;;;20.40;99.90;;;;;;5011417;28;20043;-72
2023/06/24 07:50:11;;;;;;;3.25;2.40;;;20.50;99.90;;;;;;5012121;28;20041;-73
2023/06/24 07:52:37;;;;;;;3.92;2.65;;;20.40;99.90;;;;;;5010584;28;20494;-72
2023/06/24 07:55:04;;;;;;;5.25;2.58;;;20.50;99.90;;;;;;5011410;28;20033;-76
2023/06/24 07:57:30;;;;;;;4.82;2.50;;;20.40;99.90;;;;;;4993612;28;20434;-75
2023/06/24 07:59:56;;;;;;;5.70;2.17;;;20.40;99.90;;;;;;5009838;28;20022;-74
2023/06/24 08:02:23;;;;;;;2.20;1.83;;;20.40;99.90;;;;;;5011327;28;20399;-73
2023/06/24 08:04:49;;;;;;;2.97;2.45;;;20.40;99.90;;;;;;5010645;28;20037;-73
2023/06/24 08:07:15;;;;;;;1.90;1.70;;;20.50;99.90;;;;;;5011985;28;20030;-74
2023/06/24 08:09:41;;;;;;;3.22;1.77;;;20.50;99.90;;;;;;5012267;28;20400;-73
2023/06/24 08:12:07;;;;;;;4.15;2.05;;;20.60;99.90;;;;;;5011526;28;20057;-72
2023/06/24 08:14:33;;;;;;;2.67;2.38;;;20.60;99.90;;;;;;5012418;28;20033;-74
2023/06/24 08:16:58;;;;;;;3.28;1.83;;;20.60;99.90;;;;;;5010286;28;20041;-74
2023/06/24 08:19:24;;;;;;;2.47;1.95;;;20.70;99.90;;;;;;5012081;28;20026;-74
2023/06/24 08:21:50;;;;;;;2.75;1.75;;;20.70;99.90;;;;;;5012187;28;20396;-74
2023/06/24 08:24:15;;;;;;;2.45;2.08;;;20.80;99.90;;;;;;5012036;28;20041;-74
2023/06/24 08:26:41;;;;;;;3.03;1.80;;;20.80;99.90;;;;;;5012485;28;20472;-74
2023/06/24 08:29:07;;;;;;;2.33;2.03;;;20.80;99.90;;;;;;5011967;28;20044;-75
2023/06/24 08:31:33;;;;;;;2.63;1.90;;;20.90;99.90;;;;;;5012360;28;20037;-74
2023/06/24 08:34:08;;;;;;;3.33;2.20;;;20.90;99.90;;;;;;5012016;28;20383;-74
2023/06/24 08:36:33;;;;;;;4.93;2.00;;;21.00;99.90;;;;;;5012711;28;20029;-76
2023/06/24 08:38:59;;;;;;;4.38;2.05;;;21.10;99.90;;;;;;5009998;28;20423;-74
2023/06/24 08:41:25;;;;;;;3.33;1.83;;;21.10;99.90;;;;;;5007111;28;20042;-73
2023/06/24 08:43:52;;;;;;;4.93;2.83;;;21.20;99.90;;;;;;4991887;28;20031;-75
2023/06/24 08:46:19;;;;;;;4.65;2.13;;;21.20;99.90;;;;;;4992922;28;20030;-72
2023/06/24 08:48:47;;;;;;;4.65;1.88;;;21.20;99.90;;;;;;4992614;28;20026;-74
2023/06/24 08:51:18;;;;;;;3.28;2.10;;;21.30;99.90;;;;;;4992111;28;20058;-75
2023/06/24 08:53:44;;;;;;;2.72;2.08;;;21.30;99.90;;;;;;5007201;28;20439;-73
2023/06/24 08:56:10;;;;;;;5.22;2.72;;;21.40;99.90;;;;;;4992539;28;20069;-74
2023/06/24 08:58:36;;;;;;;3.40;2.25;;;21.40;99.90;;;;;;4992295;28;20384;-76
2023/06/24 09:01:02;;;;;;;4.07;2.10;;;21.40;99.90;;;;;;4992566;28;20049;-73
2023/06/24 09:03:28;;;;;;;2.25;1.83;;;21.50;99.90;;;;;;4992425;28;20061;-76
2023/06/24 09:05:54;;;;;;;2.65;2.10;;;21.50;99.90;;;;;;4992313;28;20445;-73
2023/06/24 09:08:22;;;;;;;3.75;1.90;;;21.60;99.90;;;;;;4992357;28;20089;-74
2023/06/24 09:10:54;;;;;;;2.95;1.80;;;21.60;99.90;;;;;;4992199;28;20022;-74
2023/06/24 09:13:20;;;;;;;3.17;1.90;;;21.70;99.90;;;;;;4990834;28;20027;-76
2023/06/24 09:15:46;;;;;;;3.33;1.85;;;21.80;99.90;;;;;;4993970;28;20034;-73
2023/06/24 09:18:11;;;;;;;2.88;1.88;;;21.90;99.90;;;;;;4995022;28;20122;-74
2023/06/24 09:20:44;;;;;;;2.30;1.88;;;21.90;99.90;;;;;;4996227;28;20077;-73
2023/06/24 09:23:10;;;;;;;3.40;1.80;;;22.00;99.90;;;;;;4994651;28;20046;-73
2023/06/24 09:25:36;;;;;;;4.70;1.80;;;22.10;99.90;;;;;;4995419;28;20038;-73
2023/06/24 09:28:03;;;;;;;3.03;1.88;;;22.10;99.90;;;;;;4996344;28;20369;-74
2023/06/24 09:30:29;;;;;;;4.30;1.80;;;22.10;99.90;;;;;;4996128;28;20054;-74
2023/06/24 09:32:55;;;;;;;1.95;1.67;;;22.10;99.90;;;;;;4995837;28;20035;-74
2023/06/24 09:35:25;;;;;;;4.97;1.58;;;22.20;99.90;;;;;;4995252;28;20432;-75
2023/06/24 09:37:55;;;;;;;2.83;1.42;;;22.20;99.90;;;;;;4995620;28;20062;-74
2023/06/24 09:40:22;;;;;;;2.13;1.48;;;22.30;99.90;;;;;;5007694;28;20078;-73
2023/06/24 09:42:56;;;;;;;2.08;1.52;;;22.50;99.90;;;;;;5015404;28;20462;-75
2023/06/24 09:45:27;;;;;;;2.08;1.45;;;22.50;99.90;;;;;;5014698;28;20036;-73
2023/06/24 09:47:54;;;;;;;1.83;1.45;;;22.60;99.90;;;;;;5014728;28;20041;-74
2023/06/24 09:50:20;;;;;;;1.85;1.35;;;22.70;99.90;;;;;;5013581;28;20041;-72
2023/06/24 09:52:47;;;;;;;3.60;1.48;;;22.70;99.90;;;;;;5015178;28;20439;-74
2023/06/24 09:55:14;;;;;;;1.40;1.27;;;22.90;99.90;;;;;;5014380;28;20155;-75
2023/06/24 09:57:44;;;;;;;2.92;1.60;;;22.90;99.90;;;;;;5015148;28;20018;-73
2023/06/24 10:00:10;;;;;;;3.28;1.30;;;22.90;99.90;;;;;;4997062;28;20124;-73
2023/06/24 10:02:37;;;;;;;1.58;1.38;;;22.90;99.90;;;;;;5014639;28;20536;-74
2023/06/24 10:05:04;;;;;;;3.58;1.50;;;22.80;99.90;;;;;;5014557;28;20117;-73
2023/06/24 10:07:31;;;;;;;1.90;1.40;;;22.80;99.90;;;;;;5015014;28;20030;-73
2023/06/24 10:09:57;;;;;;;2.03;1.48;;;22.70;99.90;;;;;;5014561;28;20026;-74
2023/06/24 10:12:26;;;;;;;3.03;1.58;;;22.70;99.90;;;;;;4996987;28;20141;-74
2023/06/24 10:14:52;;;;;;;1.60;1.30;;;22.70;99.90;;;;;;5014143;28;20161;-74
2023/06/24 10:17:18;;;;;;;4.22;1.55;;;22.80;99.90;;;;;;5014638;28;20049;-72
2023/06/24 10:19:44;;;;;;;1.38;1.10;;;22.90;99.90;;;;;;5014652;28;20468;-76
2023/06/24 10:22:11;;;;;;;5.00;1.60;;;23.00;99.90;;;;;;5014354;28;20116;-75
2023/06/24 10:24:42;;;;;;;1.70;1.30;;;23.10;99.90;;;;;;5013951;28;20038;-74
2023/06/24 10:27:08;;;;;;;2.53;1.27;;;23.20;99.90;;;;;;5014221;28;20018;-76
2023/06/24 10:29:38;;;;;;;1.75;1.00;;;23.30;99.90;;;;;;5014040;28;20073;-73
2023/06/24 10:32:05;;;;;;;2.60;1.15;;;23.30;99.90;;;;;;5014176;28;20030;-74
2023/06/24 10:34:45;;;;;;;3.22;1.55;;;23.40;99.90;;;;;;4996389;28;20037;-74
2023/06/24 10:37:17;;;;;;;3.60;1.55;;;23.30;99.90;;;;;;5013858;28;20026;-76
2023/06/24 10:39:49;;;;;;;1.77;1.42;;;23.20;99.90;;;;;;5013815;28;20046;-74
2023/06/24 10:42:31;;;;;;;2.17;1.30;;;23.20;99.90;;;;;;5014169;28;20491;-75
2023/06/24 10:45:20;;;;;;;3.92;1.30;;;23.10;99.90;;;;;;5013826;28;20038;-74
2023/06/24 10:47:56;;;;;;;1.90;1.30;;;23.10;99.90;;;;;;5013320;28;20053;-73
2023/06/24 10:50:23;;;;;;;6.22;1.33;;;23.10;99.90;;;;;;5013856;28;20261;-73
2023/06/24 10:52:55;;;;;;;1.27;0.90;;;23.10;99.90;;;;;;5013874;28;20030;-73
2023/06/24 10:55:24;;;;;;;3.63;1.17;;;23.10;99.90;;;;;;4996412;28;20380;-73
2023/06/24 10:57:50;;;;;;;2.45;0.85;;;23.20;99.90;;;;;;5013865;28;20030;-73
2023/06/24 11:00:16;;;;;;;1.33;0.63;;;23.20;99.90;;;;;;5013828;28;20060;-73
2023/06/24 11:02:42;;;;;;;1.10;1.00;;;23.30;99.90;;;;;;5013614;28;20100;-74
2023/06/24 11:05:08;;;;;;;0.77;0.77;;;23.30;99.90;;;;;;5013714;28;20041;-73
2023/06/24 11:07:36;;;;;;;2.15;0.82;;;23.30;99.90;;;;;;5014316;28;20030;-75
2023/06/24 11:10:11;;;;;;;1.85;0.90;;;23.40;99.90;;;;;;5014098;28;20026;-73
2023/06/24 11:12:38;;;;;;;1.25;0.77;;;23.50;99.90;;;;;;5013755;28;20125;-76
2023/06/24 11:15:06;;;;;;;1.95;0.90;;;23.40;99.90;;;;;;4995724;28;20126;-74
2023/06/24 11:17:36;;;;;;;2.53;0.90;;;23.50;99.90;;;;;;5012653;28;20050;-74
2023/06/24 11:20:06;;;;;;;1.57;0.87;;;23.50;99.90;;;;;;5013461;28;20022;-74
2023/06/24 11:22:32;;;;;;;0.88;0.70;;;23.70;99.90;;;;;;5013605;28;20033;-74
2023/06/24 11:24:57;;;;;;;1.42;0.80;;;23.80;99.90;;;;;;5012996;28;20034;-73
2023/06/24 11:27:27;;;;;;;3.80;1.20;;;23.90;99.90;;;;;;5011888;28;20547;-73
2023/06/24 11:29:54;;;;;;;1.75;0.85;;;24.10;99.90;;;;;;5013081;28;20029;-73
2023/06/24 11:32:20;;;;;;;1.92;0.80;;;24.20;99.90;;;;;;5013347;28;20045;-75
2023/06/24 11:34:47;;;;;;;1.42;0.80;;;24.30;99.90;;;;;;5013049;28;20038;-74
2023/06/24 11:37:13;;;;;;;1.45;0.80;;;24.30;99.90;;;;;;5012696;28;20088;-74
2023/06/24 11:39:40;;;;;;;1.05;0.80;;;24.30;99.90;;;;;;5005889;28;20047;-73
2023/06/24 11:42:09;;;;;;;1.02;0.88;;;24.30;99.90;;;;;;4993486;28;20037;-73
2023/06/24 11:44:35;;;;;;;2.83;1.17;;;24.30;99.90;;;;;;5008047;28;20446;-73
2023/06/24 11:47:06;;;;;;;0.90;0.90;;;24.40;99.90;;;;;;4993438;28;20034;-73
2023/06/24 11:49:31;;;;;;;;;;;24.50;99.90;;;;;;4993795;28;20030;-73
2023/06/24 11:51:57;;;;;;;0.82;0.70;;;24.60;99.90;;;;;;4993274;28;20249;-73
2023/06/24 11:54:23;;;;;;;0.82;0.80;;;24.80;99.90;;;;;;4993460;28;20113;-73
2023/06/24 11:56:52;;;;;;;0.70;0.70;;;25.00;99.90;;;;;;4993101;28;20038;-75
2023/06/24 11:59:22;;;;;;;2.83;0.70;;;25.10;99.60;;;;;;4992020;28;20037;-73
2023/06/24 12:01:55;;;;;;;2.67;0.88;;;25.20;98.30;;;;;;4993430;28;20038;-75
2023/06/24 12:04:26;;;;;;;1.88;0.65;;;25.30;97.90;;;;;;4992630;28;20142;-74
2023/06/24 12:06:52;;;;;;;1.08;0.73;;;25.50;97.80;;;;;;4992943;28;20111;-75
2023/06/24 12:09:18;;;;;;;1.25;1.15;;;25.70;97.30;;;;;;5007915;28;20113;-73
2023/06/24 12:11:43;;;;;;;1.02;0.90;;;25.80;96.30;;;;;;4992864;28;20069;-73
2023/06/24 12:14:09;;;;;;;1.85;0.73;;;25.90;94.20;;;;;;4992765;28;20041;-74
2023/06/24 12:16:35;;;;;;;0.88;0.70;;;26.10;93.80;;;;;;5008135;28;20030;-74
2023/06/24 12:19:02;;;;;;;2.25;0.88;;;26.30;93.00;;;;;;4992537;28;20037;-73
2023/06/24 12:21:27;;;;;;;0.70;0.70;;;26.60;92.50;;;;;;4992755;28;20026;-73
2023/06/24 12:23:53;;;;;;;2.78;0.90;;;26.80;91.80;;;;;;4992674;28;20030;-73
2023/06/24 12:26:19;;;;;;;2.42;0.70;;;26.90;90.80;;;;;;4992393;28;20026;-73
2023/06/24 12:28:44;;;;;;;1.42;0.80;;;27.00;89.90;;;;;;4992737;28;20022;-73
2023/06/24 12:31:10;;;;;;;2.95;1.00;;;27.10;88.90;;;;;;4993006;28;20037;-74
2023/06/24 12:33:36;;;;;;;0.95;0.80;;;27.30;86.30;;;;;;4992647;28;20502;-74
2023/06/24 12:36:02;;;;;;;1.05;0.90;;;27.30;84.10;;;;;;4992495;28;20034;-74
2023/06/24 12:38:27;;;;;;;1.90;1.00;;;27.40;82.10;;;;;;4992636;28;20519;-73
2023/06/24 12:40:53;;;;;;;1.00;0.82;;;27.50;81.20;;;;;;5009207;28;20137;-73
2023/06/24 12:43:22;;;;;;;2.60;0.80;;;27.50;80.70;;;;;;5011028;28;20026;-73
2023/06/24 12:45:48;;;;;;;3.22;0.82;;;27.50;80.60;;;;;;5023361;28;20132;-73
2023/06/24 12:48:14;;;;;;;1.70;0.88;;;27.60;80.40;;;;;;5011775;28;20167;-75
2023/06/24 12:50:40;;;;;;;1.65;1.15;;;27.70;80.30;;;;;;5015091;28;20459;-75